createdAt,value
2022-10-16T00:01:24.762Z,85.61
2022-10-16T00:03:53.014Z,84.93
2022-10-16T00:06:21.638Z,85.90
2022-10-16T00:08:49.940Z,85.36
2022-10-16T00:11:23.088Z,85.19
2022-10-16T00:13:52.888Z,85.93
2022-10-16T00:16:20.433Z,86.52
2022-10-16T00:18:47.888Z,85.83
2022-10-16T00:21:20.330Z,86.64
2022-10-16T00:23:48.116Z,86.28
2022-10-16T00:26:17.331Z,86.15
2022-10-16T00:28:47.918Z,86.17
2022-10-16T00:31:15.529Z,86.31
2022-10-16T00:33:43.436Z,86.70
2022-10-16T00:36:13.751Z,86.51
2022-10-16T00:38:41.060Z,86.30
2022-10-16T00:41:11.195Z,86.65
2022-10-16T00:43:39.841Z,86.31
2022-10-16T00:46:15.346Z,86.98
2022-10-16T00:48:46.566Z,86.65
2022-10-16T00:51:14.166Z,86.33
2022-10-16T00:53:41.656Z,86.32
2022-10-16T00:56:08.965Z,86.03
2022-10-16T00:58:36.768Z,85.94
2022-10-16T01:01:04.011Z,85.78
2022-10-16T01:03:34.796Z,85.37
2022-10-16T01:09:10.483Z,85.93
2022-10-16T01:11:56.485Z,86.49
2022-10-16T01:14:47.005Z,85.09
2022-10-16T01:17:20.052Z,87.07
2022-10-16T01:19:59.188Z,85.65
2022-10-16T01:22:34.932Z,85.52
2022-10-16T01:25:06.867Z,85.28
2022-10-16T01:27:37.216Z,85.86
2022-10-16T01:30:06.984Z,85.51
2022-10-16T01:32:40.153Z,84.87
2022-10-16T01:35:13.330Z,83.95
2022-10-16T01:38:13.970Z,83.53
2022-10-16T01:40:46.185Z,84.82
2022-10-16T01:43:16.594Z,83.76
2022-10-16T01:45:45.984Z,83.71
2022-10-16T01:48:15.969Z,84.05
2022-10-16T01:50:45.234Z,84.68
2022-10-16T01:53:14.351Z,84.36
2022-10-16T01:55:46.006Z,83.62
2022-10-16T01:58:14.859Z,83.72
2022-10-16T02:00:44.962Z,84.46
2022-10-16T02:03:12.335Z,83.24
2022-10-16T02:05:56.608Z,84.86
2022-10-16T02:08:25.621Z,85.79
2022-10-16T02:10:53.037Z,85.40
2022-10-16T02:13:27.281Z,86.05
2022-10-16T02:15:54.755Z,85.98
2022-10-16T02:18:22.564Z,84.80
2022-10-16T02:21:02.122Z,84.46
2022-10-16T02:23:44.921Z,84.22
2022-10-16T02:26:14.807Z,83.85
2022-10-16T02:28:53.269Z,84.21
2022-10-16T02:31:27.973Z,82.83
2022-10-16T02:33:57.685Z,83.27
2022-10-16T02:36:24.962Z,82.84
2022-10-16T02:38:53.072Z,82.07
2022-10-16T02:41:22.586Z,81.80
2022-10-16T02:43:50.535Z,81.81
2022-10-16T02:46:18.686Z,80.33
2022-10-16T02:48:45.936Z,82.14
2022-10-16T02:51:13.308Z,81.64
2022-10-16T02:53:40.510Z,82.41
2022-10-16T02:56:08.193Z,81.20
2022-10-16T02:58:35.484Z,81.44
2022-10-16T03:01:02.846Z,81.04
2022-10-16T03:03:30.233Z,80.62
2022-10-16T03:05:57.482Z,81.26
2022-10-16T03:08:26.132Z,78.69
2022-10-16T03:10:53.680Z,80.86
2022-10-16T03:13:21.486Z,81.56
2022-10-16T03:15:48.876Z,82.49
2022-10-16T03:18:16.362Z,82.05
2022-10-16T03:20:44.166Z,78.99
2022-10-16T03:23:11.542Z,82.14
2022-10-16T03:25:38.897Z,82.63
2022-10-16T03:28:06.436Z,82.29
2022-10-16T03:30:33.730Z,82.90
2022-10-16T03:33:00.964Z,82.20
2022-10-16T03:35:28.352Z,80.26
2022-10-16T03:37:55.616Z,82.76
2022-10-16T03:40:22.865Z,81.53
2022-10-16T03:42:50.088Z,82.99
2022-10-16T03:45:17.590Z,83.41
2022-10-16T03:47:44.995Z,83.48
2022-10-16T03:50:12.233Z,81.45
2022-10-16T03:52:39.455Z,84.61
2022-10-16T03:55:07.402Z,84.50
2022-10-16T03:57:34.924Z,80.68
2022-10-16T04:00:02.235Z,82.35
2022-10-16T04:02:39.733Z,83.35
2022-10-16T04:05:07.284Z,84.59
2022-10-16T04:07:34.595Z,84.76
2022-10-16T04:10:01.905Z,84.00
2022-10-16T04:12:29.259Z,84.38
2022-10-16T04:14:56.440Z,83.51
2022-10-16T04:17:24.080Z,82.55
2022-10-16T04:19:51.532Z,81.70
2022-10-16T04:22:18.794Z,80.34
2022-10-16T04:24:46.090Z,84.08
2022-10-16T04:27:13.315Z,83.09
2022-10-16T04:29:40.546Z,83.60
2022-10-16T04:32:09.774Z,82.78
2022-10-16T04:34:39.197Z,82.37
2022-10-16T04:37:06.621Z,81.65
2022-10-16T04:39:33.881Z,85.30
2022-10-16T04:42:01.238Z,83.20
2022-10-16T04:44:28.466Z,83.09
2022-10-16T04:46:55.794Z,82.04
2022-10-16T04:49:22.997Z,84.71
2022-10-16T04:51:50.513Z,83.90
2022-10-16T04:54:17.718Z,82.92
2022-10-16T04:56:48.188Z,83.89
2022-10-16T04:59:16.279Z,84.22
2022-10-16T05:01:43.819Z,82.54
2022-10-16T05:04:11.209Z,85.29
2022-10-16T05:06:39.625Z,86.87
2022-10-16T05:09:06.955Z,86.18
2022-10-16T05:11:34.621Z,87.25
2022-10-16T05:14:02.641Z,84.17
2022-10-16T05:16:31.293Z,85.36
2022-10-16T05:19:22.380Z,85.34
2022-10-16T05:21:46.051Z,84.24
2022-10-16T05:24:13.559Z,83.98
2022-10-16T05:26:40.716Z,83.59
2022-10-16T05:29:07.981Z,83.79
2022-10-16T05:31:35.428Z,82.94
2022-10-16T05:34:03.500Z,82.55
2022-10-16T05:36:30.752Z,82.89
2022-10-16T05:38:57.976Z,82.90
2022-10-16T05:41:29.215Z,82.74
2022-10-16T05:43:56.449Z,82.04
2022-10-16T05:46:23.679Z,83.35
2022-10-16T05:48:54.360Z,83.68
2022-10-16T05:51:21.624Z,81.96
2022-10-16T05:53:48.861Z,84.75
2022-10-16T05:56:16.408Z,84.66
2022-10-16T05:58:45.174Z,85.41
2022-10-16T06:01:14.937Z,85.60
2022-10-16T06:03:42.517Z,84.96
2022-10-16T06:06:14.814Z,84.33
2022-10-16T06:08:43.253Z,83.51
2022-10-16T06:11:13.206Z,83.99
2022-10-16T06:13:42.784Z,83.77
2022-10-16T06:16:11.668Z,82.80
2022-10-16T06:18:39.401Z,83.91
2022-10-16T06:21:11.352Z,83.95
2022-10-16T06:23:38.873Z,82.69
2022-10-16T06:26:13.949Z,85.66
2022-10-16T06:28:41.290Z,84.53
2022-10-16T06:31:10.207Z,84.52
2022-10-16T06:33:38.286Z,84.75
2022-10-16T06:36:13.350Z,86.56
2022-10-16T06:38:40.742Z,85.08
2022-10-16T06:41:09.000Z,87.45
2022-10-16T06:43:36.330Z,87.50
2022-10-16T06:46:04.690Z,87.93
2022-10-16T06:48:32.336Z,87.88
2022-10-16T06:53:40.079Z,86.84
2022-10-16T06:56:17.526Z,86.17
2022-10-16T06:58:45.310Z,85.70
2022-10-16T07:01:13.265Z,85.76
2022-10-16T07:03:42.872Z,86.55
2022-10-16T07:06:12.000Z,85.80
2022-10-16T07:08:41.385Z,84.87
2022-10-16T07:11:10.926Z,85.33
2022-10-16T07:13:40.191Z,85.25
2022-10-16T07:16:10.327Z,84.74
2022-10-16T07:18:37.896Z,85.01
2022-10-16T07:21:09.550Z,85.77
2022-10-16T07:23:36.794Z,85.22
2022-10-16T07:26:04.792Z,84.63
2022-10-16T07:28:33.295Z,85.13
2022-10-16T07:31:09.086Z,85.40
2022-10-16T07:33:36.449Z,85.12
2022-10-16T07:36:03.948Z,85.26
2022-10-16T07:38:31.174Z,82.25
2022-10-16T07:41:00.073Z,84.23
2022-10-16T07:43:30.690Z,85.09
2022-10-16T07:45:59.111Z,84.12
2022-10-16T07:48:30.332Z,83.42
2022-10-16T07:51:05.006Z,82.33
2022-10-16T07:53:33.001Z,81.71
2022-10-16T07:56:05.496Z,81.45
2022-10-16T07:58:33.775Z,82.83
2022-10-16T08:01:05.548Z,84.55
2022-10-16T08:03:32.919Z,86.63
2022-10-16T08:06:00.929Z,84.08
2022-10-16T08:08:28.894Z,86.06
2022-10-16T08:10:56.187Z,85.98
2022-10-16T08:13:23.510Z,83.30
2022-10-16T08:15:50.775Z,83.65
2022-10-16T08:18:17.990Z,82.13
2022-10-16T08:20:45.245Z,82.45
2022-10-16T08:23:14.268Z,82.87
2022-10-16T08:25:42.456Z,84.10
2022-10-16T08:28:11.482Z,82.17
2022-10-16T08:30:38.962Z,83.27
2022-10-16T08:33:07.429Z,83.21
2022-10-16T08:35:34.911Z,81.78
2022-10-16T08:38:07.243Z,82.10
2022-10-16T08:40:35.601Z,80.44
2022-10-16T08:43:22.049Z,82.96
2022-10-16T08:45:49.298Z,82.71
2022-10-16T08:48:31.584Z,82.07
2022-10-16T08:50:58.851Z,82.84
2022-10-16T08:53:32.490Z,80.97
2022-10-16T08:55:59.702Z,80.03
2022-10-16T08:58:29.673Z,81.12
2022-10-16T09:01:01.930Z,80.16
2022-10-16T09:03:56.201Z,81.29
2022-10-16T09:06:36.665Z,81.79
2022-10-16T09:09:14.725Z,80.37
2022-10-16T09:11:50.994Z,81.32
2022-10-16T09:14:40.730Z,80.51
2022-10-16T09:17:19.824Z,79.86
2022-10-16T09:19:56.326Z,79.57
2022-10-16T09:22:27.498Z,79.85
2022-10-16T09:24:56.548Z,79.66
2022-10-16T09:27:24.344Z,79.84
2022-10-16T09:29:57.402Z,79.28
2022-10-16T09:32:27.109Z,78.91
2022-10-16T09:34:57.378Z,78.32
2022-10-16T09:37:24.937Z,78.07
2022-10-16T09:39:54.248Z,77.32
2022-10-16T09:42:24.712Z,77.44
2022-10-16T09:44:54.603Z,75.16
2022-10-16T09:47:24.631Z,74.63
2022-10-16T09:49:53.768Z,73.30
2022-10-16T09:52:21.123Z,74.46
2022-10-16T09:55:15.397Z,74.91
2022-10-16T09:57:55.486Z,74.53
2022-10-16T10:00:23.310Z,73.39
2022-10-16T10:02:50.924Z,73.12
2022-10-16T10:05:22.634Z,73.97
2022-10-16T10:08:07.184Z,73.65
2022-10-16T10:10:40.833Z,72.23
2022-10-16T10:13:20.071Z,72.53
2022-10-16T10:15:47.427Z,72.87
2022-10-16T10:18:23.997Z,71.95
2022-10-16T10:21:02.123Z,72.21
2022-10-16T10:23:31.773Z,71.93
2022-10-16T10:26:16.869Z,72.30
2022-10-16T10:28:57.413Z,72.21
2022-10-16T10:31:44.911Z,71.07
2022-10-16T10:34:40.107Z,70.62
2022-10-16T10:37:25.817Z,70.26
2022-10-16T10:40:09.321Z,70.88
2022-10-16T10:43:02.068Z,72.65
2022-10-16T10:45:44.479Z,72.82
2022-10-16T10:48:41.038Z,73.48
2022-10-16T10:51:44.160Z,72.23
2022-10-16T10:54:18.991Z,71.22
2022-10-16T10:56:56.524Z,70.99
2022-10-16T10:59:47.410Z,71.19
2022-10-16T11:02:37.689Z,70.85
2022-10-16T11:05:23.182Z,71.23
2022-10-16T11:07:50.298Z,73.68
2022-10-16T11:10:23.774Z,73.98
2022-10-16T11:12:55.839Z,73.98
2022-10-16T11:15:29.455Z,74.56
2022-10-16T11:18:20.503Z,74.74
2022-10-16T11:21:07.569Z,73.87
2022-10-16T11:23:42.521Z,73.61
2022-10-16T11:26:16.274Z,72.94
2022-10-16T11:28:49.736Z,71.97
2022-10-16T11:31:20.169Z,71.94
2022-10-16T11:33:58.741Z,71.34
2022-10-16T11:36:38.742Z,72.01
2022-10-16T11:39:24.134Z,70.80
2022-10-16T11:42:09.501Z,70.69
2022-10-16T11:44:45.485Z,71.17
2022-10-16T11:50:44.758Z,72.28
2022-10-16T11:53:39.787Z,71.77
2022-10-16T11:56:07.288Z,73.71
2022-10-16T11:58:50.396Z,73.70
2022-10-16T12:01:29.734Z,72.54
2022-10-16T12:04:06.490Z,71.67
2022-10-16T12:06:52.045Z,71.14
2022-10-16T12:09:25.722Z,70.69
2022-10-16T12:11:53.029Z,69.90
2022-10-16T12:14:23.428Z,70.87
2022-10-16T12:16:53.577Z,71.19
2022-10-16T12:19:22.207Z,73.00
2022-10-16T12:21:50.220Z,73.68
2022-10-16T12:24:39.894Z,72.82
2022-10-16T12:27:20.761Z,73.50
2022-10-16T12:29:48.156Z,72.89
2022-10-16T12:32:47.326Z,71.84
2022-10-16T12:35:24.375Z,71.60
2022-10-16T12:37:52.364Z,72.01
2022-10-16T12:40:34.241Z,72.14
2022-10-16T12:43:13.068Z,71.95
2022-10-16T12:45:40.535Z,71.47
2022-10-16T12:48:21.374Z,73.65
2022-10-16T12:50:49.041Z,72.49
2022-10-16T12:53:22.194Z,72.17
2022-10-16T12:56:20.570Z,72.60
2022-10-16T12:58:55.075Z,72.26
2022-10-16T13:01:35.421Z,71.59
2022-10-16T13:04:06.098Z,72.48
2022-10-16T13:06:54.760Z,72.80
2022-10-16T13:09:40.248Z,73.50
2022-10-16T13:12:30.287Z,72.04
2022-10-16T13:15:33.814Z,71.70
2022-10-16T13:18:19.216Z,73.30
2022-10-16T13:20:54.605Z,72.60
2022-10-16T13:23:51.055Z,71.77
2022-10-16T13:26:27.810Z,71.39
2022-10-16T13:28:55.182Z,71.48
2022-10-16T13:31:25.111Z,73.13
2022-10-16T13:33:55.969Z,73.96
2022-10-16T13:36:24.221Z,73.74
2022-10-16T13:39:13.352Z,72.57
2022-10-16T13:41:41.252Z,73.45
2022-10-16T13:44:18.812Z,73.03
2022-10-16T13:46:46.059Z,72.35
2022-10-16T13:49:16.222Z,72.13
2022-10-16T13:51:54.729Z,73.39
2022-10-16T13:54:21.978Z,73.14
2022-10-16T13:56:57.761Z,73.04
2022-10-16T13:59:39.603Z,73.00
2022-10-16T14:02:18.562Z,72.60
2022-10-16T14:04:46.191Z,73.66
2022-10-16T14:07:24.056Z,73.67
2022-10-16T14:09:52.113Z,72.78
2022-10-16T14:12:24.011Z,72.45
2022-10-16T14:14:55.645Z,72.60
2022-10-16T14:17:28.300Z,72.14
2022-10-16T14:20:00.947Z,72.02
2022-10-16T14:22:37.216Z,72.00
2022-10-16T14:25:37.079Z,72.82
2022-10-16T14:28:14.613Z,72.33
2022-10-16T14:30:59.535Z,73.23
2022-10-16T14:33:46.142Z,72.84
2022-10-16T14:36:23.924Z,73.08
2022-10-16T14:39:17.654Z,72.90
2022-10-16T14:41:47.423Z,72.66
2022-10-16T14:44:14.888Z,72.42
2022-10-16T14:46:43.955Z,73.45
2022-10-16T14:49:11.119Z,74.05
2022-10-16T14:51:39.780Z,73.52
2022-10-16T14:54:11.734Z,73.72
2022-10-16T14:56:52.534Z,73.29
2022-10-16T14:59:30.130Z,73.61
2022-10-16T15:01:57.473Z,73.71
2022-10-16T15:04:24.768Z,75.35
2022-10-16T15:06:52.097Z,76.09
2022-10-16T15:09:19.474Z,75.94
2022-10-16T15:11:47.723Z,75.20
2022-10-16T15:16:47.296Z,74.64
2022-10-16T15:19:14.710Z,74.04
2022-10-16T15:21:42.072Z,74.34
2022-10-16T15:24:16.434Z,75.46
2022-10-16T15:26:50.333Z,74.78
2022-10-16T15:29:18.079Z,76.07
2022-10-16T15:31:49.520Z,75.24
2022-10-16T15:34:17.250Z,75.66
2022-10-16T15:36:44.499Z,75.08
2022-10-16T15:39:15.440Z,74.77
2022-10-16T15:41:43.533Z,74.68
2022-10-16T15:44:11.056Z,74.18
2022-10-16T15:46:38.355Z,73.79
2022-10-16T15:49:05.722Z,74.55
2022-10-16T15:51:34.197Z,75.11
2022-10-16T15:54:02.954Z,75.87
2022-10-16T15:56:31.602Z,75.84
2022-10-16T15:58:59.757Z,75.97
2022-10-16T16:01:27.750Z,75.59
2022-10-16T16:03:55.406Z,75.07
2022-10-16T16:06:24.757Z,75.18
2022-10-16T16:08:52.688Z,75.29
2022-10-16T16:11:20.179Z,75.47
2022-10-16T16:13:47.513Z,75.72
2022-10-16T16:16:17.022Z,76.72
2022-10-16T16:18:44.676Z,76.61
2022-10-16T16:21:13.152Z,75.63
2022-10-16T16:23:40.493Z,76.51
2022-10-16T16:26:12.451Z,75.70
2022-10-16T16:28:40.646Z,76.00
2022-10-16T16:31:08.408Z,75.54
2022-10-16T16:33:36.001Z,75.39
2022-10-16T16:36:07.066Z,75.46
2022-10-16T16:38:35.596Z,75.68
2022-10-16T16:41:20.703Z,75.39
2022-10-16T16:43:54.124Z,75.66
2022-10-16T16:46:22.645Z,76.15
2022-10-16T16:48:54.602Z,75.88
2022-10-16T16:51:22.344Z,75.73
2022-10-16T16:53:51.424Z,76.84
2022-10-16T16:56:19.530Z,76.97
2022-10-16T16:58:48.006Z,77.71
2022-10-16T17:01:19.777Z,77.32
2022-10-16T17:03:50.661Z,77.02
2022-10-16T17:06:20.849Z,77.90
2022-10-16T17:08:49.661Z,77.10
2022-10-16T17:11:22.721Z,78.05
2022-10-16T17:13:53.980Z,79.33
2022-10-16T17:16:32.795Z,78.99
2022-10-16T17:19:01.715Z,79.28
2022-10-16T17:21:30.597Z,79.33
2022-10-16T17:23:58.037Z,80.56
2022-10-16T17:26:25.845Z,79.25
2022-10-16T17:28:55.063Z,80.98
2022-10-16T17:31:25.484Z,81.86
2022-10-16T17:33:53.431Z,79.76
2022-10-16T17:36:21.481Z,80.45
2022-10-16T17:38:48.782Z,81.04
2022-10-16T17:41:18.496Z,80.67
2022-10-16T17:43:46.619Z,80.71
2022-10-16T17:46:16.172Z,80.46
2022-10-16T17:48:45.593Z,81.07
2022-10-16T17:51:15.568Z,80.13
2022-10-16T17:53:43.427Z,80.43
2022-10-16T17:56:13.570Z,81.35
2022-10-16T17:58:40.998Z,81.21
2022-10-16T18:01:21.037Z,82.47
2022-10-16T18:03:57.395Z,82.38
2022-10-16T18:06:25.272Z,82.44
2022-10-16T18:08:53.866Z,82.43
2022-10-16T18:11:22.129Z,82.81
2022-10-16T18:13:53.049Z,83.78
2022-10-16T18:16:20.718Z,84.44
2022-10-16T18:18:48.164Z,84.34
2022-10-16T18:21:17.755Z,84.41
2022-10-16T18:23:50.842Z,84.91
2022-10-16T18:26:21.056Z,86.05
2022-10-16T18:28:49.017Z,86.71
2022-10-16T18:31:17.911Z,86.36
2022-10-16T18:33:50.667Z,86.26
2022-10-16T18:36:23.361Z,86.37
2022-10-16T18:38:51.443Z,89.29
2022-10-16T18:41:19.221Z,89.97
2022-10-16T18:43:46.660Z,89.77
2022-10-16T18:46:17.238Z,88.80
2022-10-16T18:48:45.407Z,88.13
2022-10-16T18:51:19.566Z,88.33
2022-10-16T18:53:50.181Z,89.04
2022-10-16T18:56:19.621Z,89.76
2022-10-16T18:58:50.949Z,90.33
2022-10-16T19:01:21.022Z,90.23
2022-10-16T19:03:49.445Z,91.34
2022-10-16T19:06:17.234Z,91.43
2022-10-16T19:08:44.561Z,93.21
2022-10-16T19:11:15.296Z,93.07
2022-10-16T19:13:43.550Z,93.02
2022-10-16T19:16:20.238Z,92.76
2022-10-16T19:18:49.667Z,92.43
2022-10-16T19:21:19.853Z,92.20
2022-10-16T19:23:51.714Z,92.05
2022-10-16T19:26:19.872Z,91.83
2022-10-16T19:28:47.407Z,94.00
2022-10-16T19:31:57.725Z,94.37
2022-10-16T19:34:38.873Z,96.03
2022-10-16T19:37:26.223Z,95.90
2022-10-16T19:39:54.098Z,97.87
2022-10-16T19:42:22.303Z,97.33
2022-10-16T19:44:49.995Z,97.22
2022-10-16T19:47:19.654Z,99.03
2022-10-16T19:50:02.050Z,98.66
2022-10-16T19:52:29.946Z,99.17
2022-10-16T19:54:57.999Z,99.37
2022-10-16T19:57:29.677Z,98.55
2022-10-16T19:59:56.939Z,98.70
2022-10-16T20:02:27.516Z,98.18
2022-10-16T20:04:56.797Z,99.29
2022-10-16T20:07:29.231Z,100.00
2022-10-16T20:09:59.818Z,100.00
2022-10-16T20:12:27.414Z,100.00
2022-10-16T20:15:00.515Z,100.00
2022-10-16T20:17:27.990Z,100.00
2022-10-16T20:19:59.529Z,100.00
2022-10-16T20:22:27.750Z,100.00
2022-10-16T20:24:54.999Z,100.00
2022-10-16T20:27:25.410Z,100.00
2022-10-16T20:29:53.100Z,99.09
2022-10-16T20:35:19.329Z,98.95
2022-10-16T20:37:49.058Z,99.02
2022-10-16T20:40:16.599Z,98.50
2022-10-16T20:42:44.259Z,97.50
2022-10-16T20:45:11.818Z,98.23
2022-10-16T20:47:39.047Z,98.13
2022-10-16T20:50:06.783Z,97.46
2022-10-16T20:52:34.564Z,99.30
2022-10-16T20:55:01.934Z,100.00
2022-10-16T20:57:29.457Z,99.29
2022-10-16T20:59:57.048Z,99.49
2022-10-16T21:02:24.702Z,100.00
2022-10-16T21:04:52.029Z,100.00
2022-10-16T21:07:19.219Z,100.00
2022-10-16T21:09:46.481Z,100.00
2022-10-16T21:12:14.277Z,100.00
2022-10-16T21:14:46.413Z,100.00
2022-10-16T21:17:18.644Z,100.00
2022-10-16T21:19:46.092Z,100.00
2022-10-16T21:22:13.356Z,100.00
2022-10-16T21:24:40.625Z,100.00
2022-10-16T21:27:08.201Z,100.00
2022-10-16T21:29:35.497Z,100.00
2022-10-16T21:32:03.252Z,100.00
2022-10-16T21:34:30.557Z,100.00
2022-10-16T21:36:57.820Z,100.00
2022-10-16T21:39:25.019Z,99.13
2022-10-16T21:41:52.756Z,97.54
2022-10-16T21:44:22.876Z,97.72
2022-10-16T21:46:50.246Z,96.14
2022-10-16T21:49:19.174Z,95.92
2022-10-16T21:51:48.939Z,95.46
2022-10-16T21:54:18.804Z,95.28
2022-10-16T21:56:46.754Z,94.49
2022-10-16T21:59:21.519Z,94.04
2022-10-16T22:01:49.019Z,93.95
2022-10-16T22:04:16.682Z,94.30
2022-10-16T22:06:44.728Z,94.33
2022-10-16T22:09:14.464Z,93.60
2022-10-16T22:11:45.838Z,93.21
2022-10-16T22:14:17.037Z,93.49
2022-10-16T22:16:44.937Z,93.37
2022-10-16T22:19:13.852Z,94.64
2022-10-16T22:21:47.881Z,94.24
2022-10-16T22:24:16.607Z,94.88
2022-10-16T22:26:45.227Z,94.86
2022-10-16T22:29:14.467Z,94.02
2022-10-16T22:31:44.144Z,93.31
2022-10-16T22:34:14.034Z,92.82
2022-10-16T22:36:41.442Z,92.90
2022-10-16T22:39:09.938Z,92.40
2022-10-16T22:41:37.880Z,92.36
2022-10-16T22:44:05.096Z,93.10
2022-10-16T22:46:32.384Z,93.70
2022-10-16T22:48:59.590Z,92.93
2022-10-16T22:51:27.550Z,92.14
2022-10-16T22:53:54.849Z,92.21
2022-10-16T22:56:22.368Z,91.86
2022-10-16T22:58:50.003Z,91.47
2022-10-16T23:01:27.657Z,91.23
2022-10-16T23:03:55.011Z,91.32
2022-10-16T23:06:22.274Z,90.68
2022-10-16T23:08:54.681Z,90.57
2022-10-16T23:11:22.199Z,90.90
2022-10-16T23:13:49.503Z,91.02
2022-10-16T23:16:18.265Z,90.50
2022-10-16T23:18:45.964Z,90.68
2022-10-16T23:21:24.186Z,90.91
2022-10-16T23:23:52.248Z,90.72
2022-10-16T23:26:24.940Z,90.19
2022-10-16T23:28:52.471Z,90.89
2022-10-16T23:31:20.086Z,91.25
2022-10-16T23:33:57.737Z,91.11
2022-10-16T23:36:25.376Z,91.33
2022-10-16T23:38:52.661Z,91.26
2022-10-16T23:41:20.352Z,91.50
2022-10-16T23:43:48.169Z,91.97
2022-10-16T23:46:15.899Z,91.39
2022-10-16T23:48:43.227Z,90.83
2022-10-16T23:51:11.416Z,90.18
2022-10-16T23:53:38.778Z,90.36
2022-10-16T23:56:06.149Z,89.68
2022-10-16T23:58:33.358Z,89.48
